Nearby METAR Reports

 

EGDY - Yeovilton (navy), United Kingdom
Distance from station: NNW 26mi, 42km
Updated: 10/07/2020 10:50
Mostly cloudy
Mostly cloudy
 Wind from NW
Wind: NW 12 mph , 19 km/h
Temperature: 15°C
Dew Point: 8°C
Humidity: 63%
Barometer: 1019 hPa
Clouds: Mostly cloudy
Visibility: 6 miles , 10 km
Cloud details: Few Clouds 366 m
Mostly cloudy 1524 m
2020/07/10 08:50 EGDY 100850Z 31010KT 9999 FEW012 BKN050 15/08 Q1019 NOSIG RMK BLU BLU
EGHH - Bournemouth Airp, United Kingdom
Distance from station: ENE 28mi, 45km
Updated: 10/07/2020 10:50
Few Clouds
Few Clouds
 Wind from NNW
Wind: NNW 13 mph , 20 km/h
Temperature: 17°C
Dew Point: 8°C
Humidity: 56%
Barometer: 1018 hPa
Clouds: Few Clouds
Visibility: 6 miles , 10 km
Cloud details: Few Clouds 762 m
2020/07/10 08:50 EGHH 100850Z 33011KT 300V010 9999 FEW025 17/08 Q1018
 
EGTE - Exeter Airport, United Kingdom
Distance from station: W 43mi, 70km
Updated: 10/07/2020 10:50
Partly cloudy
Partly cloudy
 Wind from NW
Wind: NW 13 mph , 20 km/h
Temperature: 16°C
Dew Point: 9°C
Humidity: 63%
Barometer: 1019 hPa
Clouds: Partly cloudy
Visibility: 6 miles , 10 km
Cloud details: Partly cloudy 914 m
2020/07/10 08:50 EGTE 100850Z 32011KT 9999 SCT030 16/09 Q1019
EGDM - Boscombe Down, United Kingdom
Distance from station: NE 47mi, 76km
Updated: 10/07/2020 10:50
Mostly cloudy
Mostly cloudy
 Wind from NW
Wind: NW 15 mph , 24 km/h
Temperature: 15°C
Dew Point: 8°C
Humidity: 63%
Barometer: 1018 hPa
Clouds: Mostly cloudy
Visibility: 6 miles , 10 km
Cloud details: Few Clouds 853 m
Mostly cloudy 1829 m
2020/07/10 08:50 EGDM 100850Z 31013KT 9999 FEW028 BKN060 15/08 Q1018 NOSIG RMK BLU BLU
 
EGVP - Middle Wallop, United Kingdom
Distance from station: NE 51mi, 82km
Updated: 10/07/2020 10:50
Mostly cloudy
Mostly cloudy
 Wind from WNW
Wind: WNW 12 mph , 19 km/h
Temperature: 15°C
Dew Point: 8°C
Humidity: 63%
Barometer: 1018 hPa
Clouds: Mostly cloudy
Visibility: 6 miles , 10 km
Cloud details: Few Clouds 792 m
Mostly cloudy 1829 m
2020/07/10 08:50 EGVP 100850Z 30010KT 9999 FEW026 BKN060 15/08 Q1018 NOSIG RMK BLU BLU
EGGD - Bristol/Lulsgate, United Kingdom
Distance from station: NNW 52mi, 83km
Updated: 10/07/2020 10:50
Clear
Clear
 Wind from NNW
Wind: NNW 7 mph , 11 km/h
Temperature: 13°C
Dew Point: 8°C
Humidity: 72%
Barometer: 1019 hPa
Clouds: Clear
Visibility: 6 miles , 10 km
2020/07/10 08:50 EGGD 100850Z AUTO 33006KT 290V010 9999 NCD 13/08 Q1019
 
EGHI - Southampton Wx C, United Kingdom
Distance from station: ENE 52mi, 84km
Updated: 09/07/2020 20:50
NOT Current
Mostly cloudy
Mostly cloudy
 Wind from WSW
Wind: WSW 7 mph , 11 km/h
Temperature: 18°C
Dew Point: 15°C
Humidity: 83%
Barometer: 1011 hPa
Clouds: Mostly cloudy
Visibility: 6 miles , 10 km
Cloud details: Mostly cloudy 305 m
2020/07/09 18:50 EGHI 091850Z 24006KT 220V280 9999 BKN010 18/15 Q1011
EGJA - Alderney/Channel, United Kingdom
Distance from station: S 65mi, 104km
Updated: 09/07/2020 19:50
NOT Current
Mostly cloudy
Mostly cloudy
 Wind from W
Wind: W 17 mph , 28 km/h
Temperature: 15°C
Dew Point: 14°C
Humidity: 94%
Barometer: 1014 hPa
Clouds: Mostly cloudy
Visibility: 6 miles , 10 km
Cloud details: Mostly cloudy 122 m
2020/07/09 17:50 EGJA 091750Z 26015KT 9999 BKN004 15/14 Q1014
 
EGFF - Cardiff-Wales Ar, United Kingdom
Distance from station: NW 65mi, 105km
Updated: 10/07/2020 10:50
Few Clouds
Few Clouds
 Wind from NW
Wind: NW 15 mph , 24 km/h
Temperature: 15°C
Dew Point: 8°C
Humidity: 63%
Barometer: 1019 hPa
Clouds: Few Clouds
Visibility: 6 miles , 10 km
Cloud details: Few Clouds 1494 m
2020/07/10 08:50 EGFF 100850Z AUTO 31013KT 9999 FEW049 15/08 Q1019
EGVA - Fairford Raf, United Kingdom
Distance from station: NNE 77mi, 123km
Updated: 10/07/2020 10:56
Mostly cloudy
Mostly cloudy
 Wind from NW
Wind: NW 8 mph , 13 km/h
Temperature: 15°C
Dew Point: 8°C
Humidity: 63%
Barometer: 1017.9 hPa
Clouds: Mostly cloudy
Visibility: 6 miles , 10 km
Cloud details: Mostly cloudy 1981 m
2020/07/10 08:56 EGVA 100856Z AUTO 31007KT 9999 BKN065 15/08 A3006 RMK AO2 SLP182 T01500078 52015 $